createdAt,value
2022-08-24T00:00:55.199Z,21.67
2022-08-24T00:03:22.240Z,21.64
2022-08-24T00:05:48.830Z,21.59
2022-08-24T00:08:15.396Z,21.55
2022-08-24T00:10:42.011Z,21.52
2022-08-24T00:13:09.174Z,21.49
2022-08-24T00:15:35.652Z,21.45
2022-08-24T00:18:02.423Z,21.41
2022-08-24T00:20:29.264Z,21.38
2022-08-24T00:22:55.746Z,21.34
2022-08-24T00:25:22.246Z,21.29
2022-08-24T00:27:48.759Z,21.28
2022-08-24T00:30:19.023Z,21.24
2022-08-24T00:32:47.997Z,21.20
2022-08-24T00:35:18.232Z,21.16
2022-08-24T00:37:45.926Z,21.14
2022-08-24T00:40:17.363Z,21.13
2022-08-24T00:42:43.805Z,21.09
2022-08-24T00:45:13.257Z,21.07
2022-08-24T00:47:47.647Z,21.05
2022-08-24T00:50:22.302Z,21.03
2022-08-24T00:52:53.352Z,20.97
2022-08-24T00:55:28.715Z,20.93
2022-08-24T00:58:01.609Z,20.86
2022-08-24T01:00:32.253Z,20.79
2022-08-24T01:03:04.496Z,20.76
2022-08-24T01:05:32.407Z,20.71
2022-08-24T01:08:00.708Z,20.69
2022-08-24T01:10:29.799Z,20.68
2022-08-24T01:13:01.395Z,20.68
2022-08-24T01:15:31.093Z,20.66
2022-08-24T01:18:17.123Z,20.64
2022-08-24T01:20:49.423Z,20.63
2022-08-24T01:23:36.678Z,20.62
2022-08-24T01:28:40.662Z,20.56
2022-08-24T01:31:08.036Z,20.54
2022-08-24T01:33:34.683Z,20.50
2022-08-24T01:36:05.735Z,20.46
2022-08-24T01:38:33.377Z,20.40
2022-08-24T01:41:02.133Z,20.33
2022-08-24T01:43:28.727Z,20.29
2022-08-24T01:45:57.139Z,20.27
2022-08-24T01:48:23.615Z,20.25
2022-08-24T01:50:50.253Z,20.24
2022-08-24T01:53:16.968Z,20.22
2022-08-24T01:55:43.803Z,20.20
2022-08-24T01:58:10.276Z,20.18
2022-08-24T02:00:37.640Z,20.16
2022-08-24T02:03:04.951Z,20.14
2022-08-24T02:05:31.548Z,20.08
2022-08-24T02:07:58.244Z,20.05
2022-08-24T02:10:27.355Z,20.02
2022-08-24T02:13:00.151Z,19.97
2022-08-24T02:15:29.381Z,19.91
2022-08-24T02:17:56.048Z,19.86
2022-08-24T02:20:23.332Z,19.81
2022-08-24T02:22:51.564Z,19.80
2022-08-24T02:25:18.529Z,19.79
2022-08-24T02:27:45.278Z,19.79
2022-08-24T02:30:12.123Z,19.77
2022-08-24T02:32:42.121Z,19.75
2022-08-24T02:35:09.704Z,19.69
2022-08-24T02:37:36.496Z,19.66
2022-08-24T02:40:11.089Z,19.64
2022-08-24T02:42:38.020Z,19.66
2022-08-24T02:45:05.314Z,19.64
2022-08-24T02:47:38.206Z,19.65
2022-08-24T02:50:08.124Z,19.66
2022-08-24T02:52:36.186Z,19.67
2022-08-24T02:55:02.961Z,19.68
2022-08-24T02:57:29.533Z,19.63
2022-08-24T02:59:55.952Z,19.61
2022-08-24T03:02:22.472Z,19.59
2022-08-24T03:04:49.331Z,19.55
2022-08-24T03:07:16.080Z,19.51
2022-08-24T03:09:42.507Z,19.49
2022-08-24T03:12:09.039Z,19.45
2022-08-24T03:14:35.908Z,19.40
2022-08-24T03:17:02.870Z,19.36
2022-08-24T03:19:29.951Z,19.32
2022-08-24T03:21:57.273Z,19.27
2022-08-24T03:24:24.000Z,19.24
2022-08-24T03:26:50.456Z,19.21
2022-08-24T03:29:17.136Z,19.16
2022-08-24T03:31:43.708Z,19.14
2022-08-24T03:34:13.731Z,19.10
2022-08-24T03:36:41.476Z,19.07
2022-08-24T03:39:07.911Z,19.03
2022-08-24T03:41:36.654Z,19.03
2022-08-24T03:44:04.077Z,19.01
2022-08-24T03:46:36.758Z,18.99
2022-08-24T03:49:06.337Z,18.98
2022-08-24T03:51:32.767Z,18.94
2022-08-24T03:54:02.605Z,18.90
2022-08-24T03:56:29.449Z,18.88
2022-08-24T03:58:56.240Z,18.86
2022-08-24T04:01:23.086Z,18.86
2022-08-24T04:03:50.321Z,18.86
2022-08-24T04:06:22.907Z,18.85
2022-08-24T04:08:50.166Z,18.83
2022-08-24T04:11:23.100Z,18.80
2022-08-24T04:13:52.704Z,18.75
2022-08-24T04:16:21.183Z,18.69
2022-08-24T04:18:48.608Z,18.67
2022-08-24T04:21:25.099Z,18.66
2022-08-24T04:23:52.488Z,18.67
2022-08-24T04:26:28.678Z,18.68
2022-08-24T04:29:09.482Z,18.67
2022-08-24T04:31:37.724Z,18.68
2022-08-24T04:34:05.423Z,18.69
2022-08-24T04:36:32.708Z,18.70
2022-08-24T04:39:00.873Z,18.69
2022-08-24T04:41:31.531Z,18.67
2022-08-24T04:43:59.479Z,18.65
2022-08-24T04:46:26.617Z,18.64
2022-08-24T04:48:53.053Z,18.63
2022-08-24T04:51:21.053Z,18.61
2022-08-24T04:53:49.108Z,18.60
2022-08-24T04:56:25.204Z,18.60
2022-08-24T04:58:53.593Z,18.56
2022-08-24T05:01:22.901Z,18.54
2022-08-24T05:03:52.243Z,18.52
2022-08-24T05:06:20.540Z,18.47
2022-08-24T05:08:47.586Z,18.44
2022-08-24T05:11:17.348Z,18.42
2022-08-24T05:13:43.876Z,18.39
2022-08-24T05:16:13.781Z,18.39
2022-08-24T05:18:41.199Z,18.39
2022-08-24T05:21:09.163Z,18.38
2022-08-24T05:23:37.328Z,18.39
2022-08-24T05:26:16.703Z,18.41
2022-08-24T05:28:43.630Z,18.41
2022-08-24T05:31:20.545Z,18.41
2022-08-24T05:33:48.231Z,18.40
2022-08-24T05:36:21.748Z,18.41
2022-08-24T05:38:49.631Z,18.40
2022-08-24T05:41:17.523Z,18.40
2022-08-24T05:43:44.664Z,18.42
2022-08-24T05:46:11.713Z,18.41
2022-08-24T05:48:38.196Z,18.43
2022-08-24T05:51:06.296Z,18.50
2022-08-24T05:53:33.497Z,18.55
2022-08-24T05:56:05.345Z,18.61
2022-08-24T05:58:31.862Z,18.64
2022-08-24T06:00:59.880Z,18.69
2022-08-24T06:03:26.945Z,18.72
2022-08-24T06:05:54.957Z,18.78
2022-08-24T06:08:21.507Z,18.83
2022-08-24T06:10:48.056Z,18.89
2022-08-24T06:13:14.755Z,18.95
2022-08-24T06:15:42.719Z,19.05
2022-08-24T06:18:14.458Z,19.15
2022-08-24T06:20:42.940Z,19.27
2022-08-24T06:23:12.596Z,19.36
2022-08-24T06:25:58.612Z,19.49
2022-08-24T06:28:25.795Z,19.60
2022-08-24T06:31:02.233Z,19.73
2022-08-24T06:33:28.761Z,19.83
2022-08-24T06:35:55.259Z,19.97
2022-08-24T06:38:22.913Z,20.09
2022-08-24T06:40:49.631Z,20.20
2022-08-24T06:43:16.170Z,20.33
2022-08-24T06:45:43.891Z,20.46
2022-08-24T06:48:11.539Z,20.59
2022-08-24T06:50:39.774Z,20.69
2022-08-24T06:53:06.343Z,20.81
2022-08-24T06:55:32.849Z,20.92
2022-08-24T06:57:59.522Z,21.03
2022-08-24T07:00:25.987Z,21.15
2022-08-24T07:02:52.547Z,21.27
2022-08-24T07:05:19.231Z,21.38
2022-08-24T07:07:45.703Z,21.49
2022-08-24T07:10:12.312Z,21.61
2022-08-24T07:12:38.746Z,21.71
2022-08-24T07:15:05.789Z,21.81
2022-08-24T07:17:42.706Z,21.92
2022-08-24T07:20:09.920Z,22.03
2022-08-24T07:22:36.325Z,22.13
2022-08-24T07:25:02.986Z,22.23
2022-08-24T07:27:29.557Z,22.34
2022-08-24T07:30:16.128Z,22.42
2022-08-24T07:32:42.436Z,22.52
2022-08-24T07:35:09.147Z,22.63
2022-08-24T07:37:41.269Z,22.71
2022-08-24T07:40:09.308Z,22.77
2022-08-24T07:42:35.897Z,22.88
2022-08-24T07:45:03.277Z,23.01
2022-08-24T07:47:54.570Z,23.08
2022-08-24T07:50:18.257Z,23.21
2022-08-24T07:52:45.570Z,23.30
2022-08-24T07:55:13.282Z,23.41
2022-08-24T07:57:41.020Z,23.52
2022-08-24T08:00:11.661Z,23.63
2022-08-24T08:02:40.645Z,23.72
2022-08-24T08:05:07.554Z,23.67
2022-08-24T08:07:34.054Z,23.73
2022-08-24T08:10:02.118Z,23.83
2022-08-24T08:12:28.535Z,23.92
2022-08-24T08:14:55.003Z,24.08
2022-08-24T08:17:21.454Z,24.21
2022-08-24T08:19:47.859Z,24.34
2022-08-24T08:22:33.206Z,24.45
2022-08-24T08:24:59.633Z,24.49
2022-08-24T08:27:26.433Z,24.61
2022-08-24T08:29:52.886Z,24.67
2022-08-24T08:32:20.120Z,24.69
2022-08-24T08:34:47.589Z,24.79
2022-08-24T08:37:14.887Z,24.88
2022-08-24T08:39:41.754Z,24.93
2022-08-24T08:42:38.174Z,25.01
2022-08-24T08:45:17.324Z,25.16
2022-08-24T08:50:44.782Z,25.43
2022-08-24T08:53:58.418Z,25.53
2022-08-24T08:56:56.073Z,25.68
2022-08-24T08:59:40.859Z,25.85
2022-08-24T09:02:17.437Z,26.01
2022-08-24T09:05:29.030Z,25.99
2022-08-24T09:08:10.446Z,26.13
2022-08-24T09:11:20.583Z,26.14
2022-08-24T09:14:05.338Z,26.30
2022-08-24T09:16:40.817Z,26.36
2022-08-24T09:19:19.479Z,26.57
2022-08-24T09:21:58.151Z,26.69
2022-08-24T09:24:33.369Z,26.90
2022-08-24T09:27:16.788Z,27.01
2022-08-24T09:29:54.111Z,27.17
2022-08-24T09:32:35.772Z,27.24
2022-08-24T09:35:11.110Z,27.44
2022-08-24T09:38:00.108Z,27.53
2022-08-24T09:40:36.484Z,27.66
2022-08-24T09:43:24.273Z,27.81
2022-08-24T09:46:00.134Z,27.96
2022-08-24T09:48:44.805Z,28.21
2022-08-24T09:51:44.406Z,28.30
2022-08-24T09:54:55.521Z,28.58
2022-08-24T10:00:46.696Z,29.03
2022-08-24T10:03:48.806Z,29.25
2022-08-24T10:06:33.786Z,29.51
2022-08-24T10:09:40.063Z,29.74
2022-08-24T10:12:22.776Z,29.89
2022-08-24T10:15:10.916Z,30.15
2022-08-24T10:18:08.834Z,30.27
2022-08-24T10:20:57.329Z,30.43
2022-08-24T10:23:55.100Z,30.55
2022-08-24T10:26:39.907Z,30.81
2022-08-24T10:29:22.307Z,30.96
2022-08-24T10:32:09.608Z,31.09
2022-08-24T10:34:54.475Z,31.34
2022-08-24T10:37:45.486Z,31.54
2022-08-24T10:40:37.254Z,31.76
2022-08-24T10:43:33.988Z,32.04
2022-08-24T10:46:18.709Z,32.12
2022-08-24T10:49:10.889Z,32.44
2022-08-24T10:52:04.437Z,32.71
2022-08-24T10:54:35.818Z,32.77
2022-08-24T10:57:11.621Z,32.74
2022-08-24T11:00:03.475Z,32.67
2022-08-24T11:02:36.627Z,32.67
2022-08-24T11:05:09.304Z,32.59
2022-08-24T11:07:36.893Z,32.83
2022-08-24T11:10:09.957Z,33.05
2022-08-24T11:12:42.737Z,33.21
2022-08-24T11:15:18.353Z,33.20
2022-08-24T11:17:58.398Z,33.21
2022-08-24T11:20:29.017Z,33.30
2022-08-24T11:23:07.915Z,33.42
2022-08-24T11:25:37.857Z,33.46
2022-08-24T11:28:25.309Z,33.70
2022-08-24T11:30:51.718Z,33.90
2022-08-24T11:33:34.021Z,34.18
2022-08-24T11:36:02.439Z,34.53
2022-08-24T11:38:34.362Z,34.51
2022-08-24T11:41:13.472Z,34.35
2022-08-24T11:44:02.004Z,34.40
2022-08-24T11:46:56.877Z,34.29
2022-08-24T11:49:35.429Z,34.27
2022-08-24T11:52:32.733Z,34.47
2022-08-24T11:55:17.799Z,34.54
2022-08-24T11:57:57.822Z,34.64
2022-08-24T12:00:30.265Z,34.90
2022-08-24T12:03:26.851Z,34.89
2022-08-24T12:06:00.932Z,35.08
2022-08-24T12:08:39.145Z,35.29
2022-08-24T12:11:33.085Z,35.33
2022-08-24T12:14:15.552Z,35.42
2022-08-24T12:17:20.389Z,35.28
2022-08-24T12:19:54.849Z,35.31
2022-08-24T12:22:22.452Z,35.33
2022-08-24T12:24:58.620Z,35.37
2022-08-24T12:27:37.569Z,35.63
2022-08-24T12:30:12.407Z,35.56
2022-08-24T12:32:46.999Z,35.64
2022-08-24T12:35:24.374Z,35.60
2022-08-24T12:37:58.597Z,35.86
2022-08-24T12:40:40.512Z,36.14
2022-08-24T12:43:14.106Z,36.19
2022-08-24T12:45:40.723Z,36.35
2022-08-24T12:48:26.331Z,36.56
2022-08-24T12:50:52.664Z,36.70
2022-08-24T12:53:46.617Z,36.98
2022-08-24T12:56:41.438Z,36.92
2022-08-24T12:59:07.887Z,37.18
2022-08-24T13:01:39.643Z,37.30
2022-08-24T13:04:29.669Z,37.20
2022-08-24T13:07:05.895Z,37.35
2022-08-24T13:09:46.168Z,37.42
2022-08-24T13:12:41.723Z,37.28
2022-08-24T13:15:26.437Z,37.41
2022-08-24T13:18:09.708Z,37.58
2022-08-24T13:20:36.568Z,37.39
2022-08-24T13:23:12.118Z,37.16
2022-08-24T13:25:47.502Z,37.52
2022-08-24T13:28:20.384Z,37.67
2022-08-24T13:31:02.615Z,37.77
2022-08-24T13:33:44.370Z,37.46
2022-08-24T13:36:29.109Z,37.67
2022-08-24T13:39:06.191Z,37.70
2022-08-24T13:41:47.373Z,37.88
2022-08-24T13:44:22.673Z,38.05
2022-08-24T13:47:12.361Z,38.10
2022-08-24T13:50:03.546Z,38.27
2022-08-24T13:52:39.288Z,38.47
2022-08-24T13:55:35.467Z,38.44
2022-08-24T13:58:23.542Z,38.34
2022-08-24T14:01:23.469Z,38.42
2022-08-24T14:03:55.134Z,38.67
2022-08-24T14:06:56.016Z,38.32
2022-08-24T14:09:38.484Z,37.85
2022-08-24T14:12:11.836Z,38.00
2022-08-24T14:14:38.245Z,38.09
2022-08-24T14:17:35.442Z,37.86
2022-08-24T14:20:08.377Z,38.25
2022-08-24T14:23:00.405Z,38.45
2022-08-24T14:25:33.253Z,38.23
2022-08-24T14:27:59.788Z,37.96
2022-08-24T14:30:26.293Z,38.06
2022-08-24T14:32:58.600Z,38.15
2022-08-24T14:35:34.360Z,38.27
2022-08-24T14:38:19.751Z,38.37
2022-08-24T14:40:58.065Z,38.33
2022-08-24T14:43:45.616Z,38.26
2022-08-24T14:46:24.585Z,38.22
2022-08-24T14:49:07.877Z,38.31
2022-08-24T14:52:19.246Z,38.25
2022-08-24T14:54:59.299Z,38.34
2022-08-24T14:58:04.452Z,38.67
2022-08-24T15:00:51.883Z,39.08
2022-08-24T15:03:32.704Z,39.48
2022-08-24T15:06:34.220Z,39.75
2022-08-24T15:09:28.768Z,40.13
2022-08-24T15:12:10.671Z,40.37
2022-08-24T15:14:46.626Z,40.08
2022-08-24T15:17:21.177Z,40.27
2022-08-24T15:20:09.401Z,40.23
2022-08-24T15:22:36.441Z,40.37
2022-08-24T15:25:12.618Z,40.77
2022-08-24T15:27:57.344Z,41.21
2022-08-24T15:30:28.205Z,41.47
2022-08-24T15:33:19.337Z,41.46
2022-08-24T15:35:49.206Z,41.23
2022-08-24T15:38:28.923Z,41.21
2022-08-24T15:41:18.721Z,41.33
2022-08-24T15:44:00.395Z,41.27
2022-08-24T15:46:33.001Z,41.08
2022-08-24T15:49:08.119Z,40.98
2022-08-24T15:51:43.619Z,40.93
2022-08-24T15:54:31.460Z,40.86
2022-08-24T15:57:18.101Z,40.59
2022-08-24T15:59:50.164Z,40.37
2022-08-24T16:02:29.145Z,40.43
2022-08-24T16:05:21.972Z,40.53
2022-08-24T16:08:04.153Z,40.76
2022-08-24T16:10:56.652Z,41.08
2022-08-24T16:13:29.070Z,41.34
2022-08-24T16:16:01.573Z,41.16
2022-08-24T16:18:53.605Z,40.73
2022-08-24T16:21:37.766Z,40.34
2022-08-24T16:24:37.744Z,40.29
2022-08-24T16:27:16.431Z,40.39
2022-08-24T16:29:51.108Z,39.94
2022-08-24T16:32:31.462Z,39.92
2022-08-24T16:35:14.413Z,39.85
2022-08-24T16:37:41.573Z,40.06
2022-08-24T16:40:09.451Z,40.11
2022-08-24T16:42:36.908Z,39.86
2022-08-24T16:45:09.499Z,39.49
2022-08-24T16:47:36.483Z,38.88
2022-08-24T16:50:04.498Z,38.34
2022-08-24T16:52:31.047Z,37.98
2022-08-24T16:54:57.629Z,37.68
2022-08-24T16:57:29.719Z,37.49
2022-08-24T16:59:56.645Z,37.11
2022-08-24T17:02:25.757Z,36.96
2022-08-24T17:04:54.444Z,36.58
2022-08-24T17:07:26.082Z,36.33
2022-08-24T17:09:54.355Z,36.06
2022-08-24T17:12:21.192Z,35.89
2022-08-24T17:14:48.037Z,35.77
2022-08-24T17:17:21.384Z,35.68
2022-08-24T17:19:50.955Z,35.52
2022-08-24T17:22:17.841Z,35.44
2022-08-24T17:24:45.526Z,35.40
2022-08-24T17:27:13.440Z,35.26
2022-08-24T17:29:41.441Z,35.14
2022-08-24T17:32:07.980Z,35.03
2022-08-24T17:34:34.746Z,34.95
2022-08-24T17:37:01.606Z,34.87
2022-08-24T17:39:28.695Z,34.76
2022-08-24T17:41:58.456Z,34.65
2022-08-24T17:44:27.508Z,34.57
2022-08-24T17:46:57.683Z,34.48
2022-08-24T17:49:25.948Z,34.47
2022-08-24T17:51:53.655Z,34.54
2022-08-24T17:54:20.072Z,34.59
2022-08-24T17:56:48.748Z,34.57
2022-08-24T17:59:20.003Z,34.53
2022-08-24T18:01:50.131Z,34.46
2022-08-24T18:04:17.893Z,34.37
2022-08-24T18:06:44.647Z,34.22
2022-08-24T18:09:22.256Z,34.06
2022-08-24T18:11:48.701Z,33.85
2022-08-24T18:14:15.101Z,33.63
2022-08-24T18:16:41.624Z,33.39
2022-08-24T18:19:09.294Z,33.15
2022-08-24T18:21:35.706Z,32.88
2022-08-24T18:24:02.105Z,32.63
2022-08-24T18:26:30.696Z,32.42
2022-08-24T18:29:01.968Z,32.19
2022-08-24T18:31:30.490Z,31.95
2022-08-24T18:33:57.023Z,31.76
2022-08-24T18:36:23.448Z,31.57
2022-08-24T18:38:49.981Z,31.42
2022-08-24T18:41:16.932Z,31.27
2022-08-24T18:43:43.431Z,31.14
2022-08-24T18:46:10.015Z,30.99
2022-08-24T18:48:36.480Z,30.88
2022-08-24T18:51:03.638Z,30.77
2022-08-24T18:53:30.204Z,30.68
2022-08-24T18:55:56.770Z,30.60
2022-08-24T18:58:23.248Z,30.48
2022-08-24T19:00:51.168Z,30.34
2022-08-24T19:03:23.148Z,30.19
2022-08-24T19:05:50.605Z,30.05
2022-08-24T19:08:17.066Z,29.88
2022-08-24T19:10:43.595Z,29.76
2022-08-24T19:13:15.741Z,29.65
2022-08-24T19:15:43.093Z,29.46
2022-08-24T19:18:11.236Z,29.33
2022-08-24T19:20:48.028Z,29.18
2022-08-24T19:23:37.214Z,29.01
2022-08-24T19:26:03.942Z,28.82
2022-08-24T19:28:31.241Z,28.72
2022-08-24T19:31:00.833Z,28.64
2022-08-24T19:33:33.917Z,28.52
2022-08-24T19:36:00.461Z,28.41
2022-08-24T19:38:26.971Z,28.30
2022-08-24T19:40:55.587Z,28.21
2022-08-24T19:43:25.788Z,28.13
2022-08-24T19:46:02.196Z,28.04
2022-08-24T19:48:34.347Z,27.95
2022-08-24T19:51:03.446Z,27.87
2022-08-24T19:53:32.859Z,27.79
2022-08-24T19:55:59.509Z,27.64
2022-08-24T19:58:39.080Z,27.56
2022-08-24T20:01:11.482Z,27.45
2022-08-24T20:03:38.047Z,27.34
2022-08-24T20:06:04.873Z,27.31
2022-08-24T20:08:31.344Z,27.23
2022-08-24T20:11:00.408Z,27.13
2022-08-24T20:13:27.471Z,27.03
2022-08-24T20:15:56.166Z,26.95
2022-08-24T20:18:31.324Z,26.89
2022-08-24T20:20:58.572Z,26.82
2022-08-24T20:23:25.487Z,26.79
2022-08-24T20:25:52.665Z,26.73
2022-08-24T20:28:29.472Z,26.69
2022-08-24T20:30:56.638Z,26.63
2022-08-24T20:33:27.863Z,26.58
2022-08-24T20:35:56.268Z,26.52
2022-08-24T20:38:23.558Z,26.47
2022-08-24T20:40:51.590Z,26.38
2022-08-24T20:43:19.054Z,26.30
2022-08-24T20:45:45.586Z,26.21
2022-08-24T20:48:13.905Z,26.10
2022-08-24T20:50:44.460Z,26.01
2022-08-24T20:53:11.854Z,25.88
2022-08-24T20:55:40.622Z,25.78
2022-08-24T20:58:07.886Z,25.65
2022-08-24T21:00:34.479Z,25.56
2022-08-24T21:03:01.070Z,25.47
2022-08-24T21:05:27.920Z,25.36
2022-08-24T21:07:57.164Z,25.26
2022-08-24T21:10:26.579Z,25.18
2022-08-24T21:12:53.849Z,25.10
2022-08-24T21:15:22.408Z,25.04
2022-08-24T21:17:49.331Z,24.97
2022-08-24T21:20:16.502Z,24.92
2022-08-24T21:22:45.936Z,24.88
2022-08-24T21:25:14.495Z,24.85
2022-08-24T21:27:44.010Z,24.82
2022-08-24T21:30:14.991Z,24.76
2022-08-24T21:33:00.527Z,24.67
2022-08-24T21:35:27.212Z,24.62
2022-08-24T21:37:53.693Z,24.56
2022-08-24T21:40:21.938Z,24.53
2022-08-24T21:42:49.075Z,24.47
2022-08-24T21:45:15.713Z,24.41
2022-08-24T21:47:42.152Z,24.37
2022-08-24T21:50:09.406Z,24.32
2022-08-24T21:52:35.839Z,24.26
2022-08-24T21:55:02.314Z,24.18
2022-08-24T21:57:28.911Z,24.10
2022-08-24T21:59:55.524Z,24.03
2022-08-24T22:02:21.951Z,23.98
2022-08-24T22:04:56.171Z,23.91
2022-08-24T22:07:24.623Z,23.83
2022-08-24T22:09:51.313Z,23.73
2022-08-24T22:12:18.492Z,23.65
2022-08-24T22:14:44.949Z,23.58
2022-08-24T22:17:11.610Z,23.51
2022-08-24T22:19:38.190Z,23.48
2022-08-24T22:22:05.168Z,23.41
2022-08-24T22:24:31.617Z,23.38
2022-08-24T22:26:58.111Z,23.34
2022-08-24T22:29:24.556Z,23.32
2022-08-24T22:31:51.820Z,23.28
2022-08-24T22:34:19.726Z,23.24
2022-08-24T22:36:48.244Z,23.20
2022-08-24T22:39:14.754Z,23.15
2022-08-24T22:41:41.487Z,23.09
2022-08-24T22:44:21.122Z,23.05
2022-08-24T22:46:56.218Z,22.99
2022-08-24T22:49:30.069Z,22.93
2022-08-24T22:51:56.772Z,22.87
2022-08-24T22:54:24.063Z,22.82
2022-08-24T22:56:53.348Z,22.76
2022-08-24T22:59:23.013Z,22.69
2022-08-24T23:01:51.522Z,22.62
2022-08-24T23:04:26.069Z,22.57
2022-08-24T23:06:52.714Z,22.51
2022-08-24T23:09:19.405Z,22.49
2022-08-24T23:11:46.290Z,22.47
2022-08-24T23:14:14.012Z,22.47
2022-08-24T23:16:44.873Z,22.45
2022-08-24T23:19:30.331Z,22.43
2022-08-24T23:21:56.735Z,22.37
2022-08-24T23:24:23.216Z,22.31
2022-08-24T23:26:49.808Z,22.28
2022-08-24T23:29:17.000Z,22.24
2022-08-24T23:31:44.367Z,22.19
2022-08-24T23:34:11.068Z,22.14
2022-08-24T23:36:38.392Z,22.11
2022-08-24T23:39:07.736Z,22.09
2022-08-24T23:41:36.533Z,22.06
2022-08-24T23:44:05.832Z,22.00
2022-08-24T23:46:32.337Z,21.94
2022-08-24T23:49:03.300Z,21.90
2022-08-24T23:51:30.562Z,21.89
2022-08-24T23:53:57.129Z,21.88
2022-08-24T23:56:25.969Z,21.84
2022-08-24T23:58:53.189Z,21.81
